Time;durP1;ratioP1;P1;durP2;ratioP2;P2;SDS_P1;SDS_P2;PMS_P1;PMS_P2;Temp;Humidity;BMP_temperature;BMP_pressure;BME280_temperature;BME280_humidity;BME280_pressure;Samples;Min_cycle;Max_cycle;Signal;HPM_P1;HPM_P2
2022/03/23 00:01:39;;;;;;;69.45;48.90;;;9.00;99.90;;;;;;4959826;28;20054;-54
2022/03/23 00:04:05;;;;;;;54.38;42.67;;;9.00;99.90;;;;;;4958923;28;20043;-53
2022/03/23 00:06:32;;;;;;;63.88;46.90;;;8.70;99.90;;;;;;4971989;28;20708;-58
2022/03/23 00:08:57;;;;;;;66.55;47.22;;;8.80;99.90;;;;;;4963891;28;20054;-56
2022/03/23 00:11:24;;;;;;;72.03;52.33;;;8.80;99.90;;;;;;4957498;28;20039;-56
2022/03/23 00:13:50;;;;;;;61.85;46.20;;;8.80;99.90;;;;;;4954303;28;20507;-57
2022/03/23 00:16:16;;;;;;;58.67;41.72;;;8.80;99.90;;;;;;4959996;28;20042;-56
2022/03/23 00:18:42;;;;;;;64.18;46.75;;;8.70;99.90;;;;;;4952161;28;20174;-56
2022/03/23 00:21:08;;;;;;;61.28;44.30;;;8.70;99.90;;;;;;4959995;28;20066;-56
2022/03/23 00:23:34;;;;;;;65.85;48.40;;;8.70;99.90;;;;;;4962944;28;20522;-56
2022/03/23 00:25:59;;;;;;;68.22;49.75;;;8.70;99.90;;;;;;4963828;28;20138;-55
2022/03/23 00:28:26;;;;;;;72.07;50.92;;;8.80;99.90;;;;;;4963310;28;20122;-53
2022/03/23 00:30:53;;;;;;;67.93;49.58;;;8.80;99.90;;;;;;4956478;28;20043;-54
2022/03/23 00:33:21;;;;;;;74.38;51.35;;;8.80;99.90;;;;;;4957895;28;20070;-54
2022/03/23 00:35:48;;;;;;;64.32;48.28;;;8.80;99.90;;;;;;4959993;28;20039;-53
2022/03/23 00:38:15;;;;;;;70.93;51.38;;;8.80;99.90;;;;;;4941139;28;20045;-54
2022/03/23 00:40:43;;;;;;;66.95;48.92;;;8.70;99.90;;;;;;4943791;28;20061;-53
2022/03/23 00:43:09;;;;;;;68.72;48.97;;;8.70;99.90;;;;;;4960134;28;20105;-54
2022/03/23 00:45:35;;;;;;;67.88;50.03;;;8.80;99.90;;;;;;4958131;28;20047;-54
2022/03/23 00:48:02;;;;;;;63.53;46.28;;;8.80;99.90;;;;;;4931506;28;20074;-57
2022/03/23 00:50:28;;;;;;;60.30;42.58;;;8.70;99.90;;;;;;4936494;28;20058;-56
2022/03/23 00:52:53;;;;;;;72.70;50.40;;;8.70;99.90;;;;;;4939237;28;21147;-58
2022/03/23 00:55:19;;;;;;;69.15;48.15;;;8.70;99.90;;;;;;4934388;28;20352;-59
2022/03/23 00:57:45;;;;;;;65.05;46.58;;;8.70;99.90;;;;;;4935741;28;20387;-57
2022/03/23 01:00:16;;;;;;;63.92;45.67;;;8.50;99.90;;;;;;4941647;28;20400;-55
2022/03/23 01:02:43;;;;;;;69.93;49.20;;;8.50;99.90;;;;;;4939380;28;20120;-57
2022/03/23 01:05:10;;;;;;;65.55;44.97;;;8.60;99.90;;;;;;4940852;28;20062;-57
2022/03/23 01:07:36;;;;;;;66.70;46.70;;;8.40;99.90;;;;;;4959814;28;20061;-56
2022/03/23 01:10:04;;;;;;;65.78;47.50;;;8.40;99.90;;;;;;4935973;28;22445;-58
2022/03/23 01:12:30;;;;;;;62.90;45.25;;;8.40;99.90;;;;;;4936768;28;20664;-55
2022/03/23 01:14:56;;;;;;;64.13;46.05;;;8.30;99.90;;;;;;4952709;28;20142;-58
2022/03/23 01:17:22;;;;;;;65.32;46.00;;;8.30;99.90;;;;;;4937624;28;20045;-58
2022/03/23 01:19:47;;;;;;;75.40;52.30;;;8.30;99.90;;;;;;4929824;28;20420;-57
2022/03/23 01:22:13;;;;;;;63.28;45.70;;;8.30;99.90;;;;;;4923075;28;20261;-57
2022/03/23 01:24:39;;;;;;;66.85;47.72;;;8.20;99.90;;;;;;4932807;28;20314;-58
2022/03/23 01:27:05;;;;;;;64.03;45.88;;;8.20;99.90;;;;;;4950989;28;20046;-56
2022/03/23 01:29:31;;;;;;;70.43;47.90;;;8.20;99.90;;;;;;4950689;28;20039;-57
2022/03/23 01:31:56;;;;;;;63.78;45.67;;;8.20;99.90;;;;;;4949940;23;20060;-58
2022/03/23 01:34:22;;;;;;;71.15;46.03;;;8.20;99.90;;;;;;4999549;28;20042;-58
2022/03/23 01:36:48;;;;;;;63.50;44.70;;;8.10;99.90;;;;;;4996655;28;20103;-54
2022/03/23 01:39:14;;;;;;;58.65;42.80;;;8.10;99.90;;;;;;4994015;28;20108;-56
2022/03/23 01:41:40;;;;;;;58.15;42.25;;;8.10;99.90;;;;;;5000073;28;20488;-57
2022/03/23 01:44:19;;;;;;;55.83;39.97;;;8.10;99.90;;;;;;4990209;28;20120;-57
2022/03/23 01:47:24;;;;;;;68.50;48.58;;;8.10;99.90;;;;;;4980611;28;20038;-55
2022/03/23 01:49:52;;;;;;;57.25;40.85;;;8.10;99.90;;;;;;5005440;28;20116;-57
2022/03/23 01:52:20;;;;;;;59.88;42.58;;;8.00;99.90;;;;;;4993310;28;20046;-57
2022/03/23 01:54:46;;;;;;;54.70;41.28;;;8.00;99.90;;;;;;4977865;28;20477;-55
2022/03/23 01:57:18;;;;;;;65.70;45.88;;;8.00;99.90;;;;;;4991870;28;20073;-55
2022/03/23 01:59:44;;;;;;;70.00;47.72;;;7.90;99.90;;;;;;4994091;28;20120;-55
2022/03/23 02:02:10;;;;;;;72.75;48.50;;;7.90;99.90;;;;;;4993628;28;20541;-57
2022/03/23 02:04:37;;;;;;;60.42;42.83;;;7.90;99.90;;;;;;4997326;28;20038;-58
2022/03/23 02:07:03;;;;;;;70.30;46.65;;;7.80;99.90;;;;;;4989262;28;20117;-55
2022/03/23 02:09:31;;;;;;;60.10;42.55;;;7.80;99.90;;;;;;4999727;28;20037;-57
2022/03/23 02:11:58;;;;;;;68.20;46.00;;;7.80;99.90;;;;;;4991791;28;20046;-57
2022/03/23 02:14:23;;;;;;;57.50;40.63;;;7.80;99.90;;;;;;4996112;28;20034;-56
2022/03/23 02:16:51;;;;;;;56.03;39.30;;;7.70;99.90;;;;;;4978950;28;20374;-57
2022/03/23 02:19:18;;;;;;;66.78;46.83;;;7.70;99.90;;;;;;4991800;28;20260;-56
2022/03/23 02:21:45;;;;;;;62.45;46.53;;;7.70;99.90;;;;;;4995863;28;20498;-58
2022/03/23 02:24:11;;;;;;;58.25;42.25;;;7.70;99.90;;;;;;4999671;28;20049;-55
2022/03/23 02:26:40;;;;;;;62.70;45.00;;;7.70;99.90;;;;;;4996259;28;20026;-57
2022/03/23 02:29:06;;;;;;;69.88;48.60;;;7.60;99.90;;;;;;4976298;28;20050;-55
2022/03/23 02:31:32;;;;;;;55.58;40.80;;;7.60;99.90;;;;;;4987937;28;20498;-57
2022/03/23 02:33:58;;;;;;;59.97;43.08;;;7.60;99.90;;;;;;5018568;28;20041;-56
2022/03/23 02:36:24;;;;;;;56.15;40.35;;;7.60;99.90;;;;;;5019794;28;20129;-55
2022/03/23 02:38:50;;;;;;;67.45;47.03;;;7.60;99.90;;;;;;5018518;28;20045;-58
2022/03/23 02:41:16;;;;;;;61.47;44.30;;;7.70;99.90;;;;;;5016966;28;20045;-57
2022/03/23 02:43:42;;;;;;;64.20;45.25;;;7.70;99.90;;;;;;5020126;28;20045;-59
2022/03/23 02:46:17;;;;;;;54.67;39.55;;;7.60;99.90;;;;;;5001127;28;20049;-56
2022/03/23 02:48:43;;;;;;;58.00;40.83;;;7.50;99.90;;;;;;5016543;28;20572;-57
2022/03/23 02:51:09;;;;;;;55.08;38.65;;;7.50;99.90;;;;;;5016059;28;20053;-57
2022/03/23 03:02:42;;;;;;;51.80;37.92;;;7.50;99.90;;;;;;5014226;28;20049;-56
2022/03/23 03:05:10;;;;;;;65.97;44.63;;;7.40;99.90;;;;;;5007407;28;20088;-57
2022/03/23 03:10:24;;;;;;;53.22;37.35;;;7.50;99.90;;;;;;5020566;28;20045;-56
2022/03/23 03:12:51;;;;;;;64.00;45.13;;;7.30;99.90;;;;;;5000495;28;20159;-55
2022/03/23 03:15:20;;;;;;;59.95;42.40;;;7.40;99.90;;;;;;5020084;28;20045;-54
2022/03/23 03:17:49;;;;;;;60.85;41.00;;;7.30;99.90;;;;;;5015765;28;20069;-57
2022/03/23 03:20:16;;;;;;;62.03;44.63;;;7.20;99.90;;;;;;5016703;28;20033;-54
2022/03/23 03:22:43;;;;;;;66.43;46.45;;;7.20;99.90;;;;;;5021064;28;20045;-58
2022/03/23 03:25:13;;;;;;;62.63;44.65;;;7.20;99.90;;;;;;5021288;28;20124;-57
2022/03/23 03:27:40;;;;;;;68.43;46.22;;;7.10;99.90;;;;;;5015186;28;20076;-57
2022/03/23 03:30:09;;;;;;;66.88;47.67;;;7.20;99.90;;;;;;5016996;28;20127;-58
2022/03/23 03:32:35;;;;;;;68.47;46.40;;;7.20;99.90;;;;;;5000389;28;20100;-58
2022/03/23 03:35:02;;;;;;;64.65;44.50;;;7.20;99.90;;;;;;5003108;28;20060;-58
2022/03/23 03:37:28;;;;;;;66.03;42.60;;;7.10;99.90;;;;;;4998598;28;20053;-56
2022/03/23 03:39:53;;;;;;;69.03;48.17;;;7.10;99.90;;;;;;4981776;28;20084;-58
2022/03/23 03:42:20;;;;;;;74.10;51.33;;;7.10;99.90;;;;;;4995693;28;20033;-58
2022/03/23 03:44:46;;;;;;;60.83;43.05;;;7.20;99.90;;;;;;5001501;28;20075;-58
2022/03/23 03:47:12;;;;;;;73.63;48.22;;;7.00;99.90;;;;;;5001341;28;20597;-57
2022/03/23 03:49:38;;;;;;;59.50;39.45;;;7.00;99.90;;;;;;4999216;28;20471;-53
2022/03/23 03:52:05;;;;;;;62.75;45.53;;;7.00;99.90;;;;;;4987608;28;20041;-55
2022/03/23 03:54:32;;;;;;;66.32;45.30;;;7.00;99.90;;;;;;5001840;28;20044;-58
2022/03/23 03:56:57;;;;;;;70.65;49.05;;;7.00;99.90;;;;;;4997271;28;20045;-56
2022/03/23 03:59:23;;;;;;;75.03;51.40;;;6.90;99.90;;;;;;4999621;28;20127;-56
2022/03/23 04:01:49;;;;;;;77.22;50.92;;;6.90;99.90;;;;;;4995695;28;20596;-56
2022/03/23 04:04:16;;;;;;;72.25;47.78;;;6.90;99.90;;;;;;4999310;28;20502;-56
2022/03/23 04:06:42;;;;;;;66.35;46.13;;;6.80;99.90;;;;;;4996283;28;20073;-56
2022/03/23 04:09:07;;;;;;;64.88;44.55;;;6.80;99.90;;;;;;5014422;28;20152;-55
2022/03/23 04:11:34;;;;;;;73.05;49.63;;;6.80;99.90;;;;;;5017361;28;20033;-57
2022/03/23 04:14:01;;;;;;;69.28;47.38;;;6.80;99.90;;;;;;5018317;28;20037;-54
2022/03/23 04:16:27;;;;;;;78.82;52.22;;;6.80;99.90;;;;;;5017010;28;20045;-54
2022/03/23 04:18:52;;;;;;;71.95;48.67;;;6.80;99.90;;;;;;5020102;28;20044;-56
2022/03/23 04:21:18;;;;;;;71.80;49.65;;;6.80;99.90;;;;;;5018028;28;20072;-56
2022/03/23 04:23:44;;;;;;;77.85;52.10;;;6.70;99.90;;;;;;5023073;28;20596;-56
2022/03/23 04:26:10;;;;;;;85.63;56.08;;;6.70;99.90;;;;;;5017324;28;20076;-55
2022/03/23 04:28:35;;;;;;;82.15;55.65;;;6.70;99.90;;;;;;5003543;28;20050;-53
2022/03/23 04:31:01;;;;;;;72.30;49.45;;;6.70;99.90;;;;;;5019635;28;20115;-55
2022/03/23 04:33:27;;;;;;;84.22;53.70;;;6.70;99.90;;;;;;5014019;28;20045;-56
2022/03/23 04:35:54;;;;;;;78.45;52.65;;;6.70;99.90;;;;;;5018229;28;20037;-56
2022/03/23 04:38:20;;;;;;;73.85;50.42;;;6.60;99.90;;;;;;5019149;28;20283;-53
2022/03/23 04:40:46;;;;;;;71.50;47.38;;;6.60;99.90;;;;;;5018565;28;20102;-57
2022/03/23 04:43:11;;;;;;;75.18;51.20;;;6.60;99.90;;;;;;5017176;28;20413;-57
2022/03/23 04:45:37;;;;;;;65.30;47.00;;;6.60;99.90;;;;;;5035835;28;20048;-55
2022/03/23 04:48:04;;;;;;;63.72;44.17;;;6.60;99.90;;;;;;5021383;28;20052;-56
2022/03/23 04:50:30;;;;;;;62.15;44.30;;;7.20;99.90;;;;;;5017299;28;20076;-57
2022/03/23 04:52:56;;;;;;;62.35;44.30;;;6.80;99.90;;;;;;5018944;28;20048;-53
2022/03/23 04:55:23;;;;;;;56.75;41.22;;;6.80;99.90;;;;;;5017370;28;20049;-53
2022/03/23 04:57:48;;;;;;;53.42;37.53;;;6.70;99.90;;;;;;5017603;28;20442;-57
2022/03/23 05:00:16;;;;;;;62.72;44.83;;;6.70;99.90;;;;;;5019403;28;20437;-55
2022/03/23 05:02:45;;;;;;;55.92;40.28;;;6.70;99.90;;;;;;5018127;28;20132;-57
2022/03/23 05:05:12;;;;;;;60.95;43.30;;;6.60;99.90;;;;;;5015535;28;24481;-57
2022/03/23 05:07:39;;;;;;;67.97;46.05;;;6.60;99.90;;;;;;5014622;28;20481;-58
2022/03/23 05:10:07;;;;;;;65.32;45.85;;;6.50;99.90;;;;;;5000185;28;20038;-57
2022/03/23 05:12:32;;;;;;;62.92;43.92;;;6.50;99.90;;;;;;4985804;28;20057;-58
2022/03/23 05:14:58;;;;;;;73.10;48.20;;;6.50;99.90;;;;;;5012655;28;20065;-56
2022/03/23 05:17:24;;;;;;;79.53;50.90;;;6.50;99.90;;;;;;5019620;28;20517;-57
2022/03/23 05:19:49;;;;;;;81.28;50.15;;;6.40;99.90;;;;;;5014564;28;20559;-55
2022/03/23 05:22:15;;;;;;;78.00;52.30;;;6.50;99.90;;;;;;5014305;28;20044;-57
2022/03/23 05:24:41;;;;;;;71.68;51.05;;;6.40;99.90;;;;;;5016514;28;20073;-57
2022/03/23 05:27:08;;;;;;;79.93;52.45;;;6.30;99.90;;;;;;5015699;28;20045;-56
2022/03/23 05:29:35;;;;;;;75.80;51.35;;;6.30;99.90;;;;;;5015122;28;20038;-57
2022/03/23 05:32:01;;;;;;;82.55;54.08;;;6.30;99.90;;;;;;4985089;28;20095;-53
2022/03/23 05:34:27;;;;;;;79.88;54.05;;;6.30;99.90;;;;;;5033033;28;20033;-57
2022/03/23 05:36:53;;;;;;;82.00;53.50;;;6.30;99.90;;;;;;4986942;28;20453;-58
2022/03/23 05:39:18;;;;;;;91.20;58.83;;;6.20;99.90;;;;;;5018865;28;20041;-56
2022/03/23 05:41:44;;;;;;;78.57;53.88;;;6.20;99.90;;;;;;5013450;28;20042;-57
2022/03/23 05:44:10;;;;;;;73.53;49.83;;;6.30;99.90;;;;;;4995601;28;20052;-57
2022/03/23 05:46:35;;;;;;;64.75;44.60;;;6.20;99.90;;;;;;4999465;28;20409;-56
2022/03/23 05:49:01;;;;;;;67.80;46.15;;;6.30;99.90;;;;;;5019189;28;20549;-55
2022/03/23 05:51:27;;;;;;;81.07;53.92;;;6.40;99.90;;;;;;5015808;28;20052;-56
2022/03/23 05:53:52;;;;;;;79.80;53.15;;;6.50;99.90;;;;;;5016275;28;20040;-56
2022/03/23 05:56:18;;;;;;;74.57;51.42;;;6.50;99.90;;;;;;5014192;28;20030;-53
2022/03/23 05:58:44;;;;;;;70.97;46.20;;;6.50;99.90;;;;;;5012220;28;20033;-54
2022/03/23 06:01:10;;;;;;;75.63;49.90;;;6.40;99.90;;;;;;5012872;28;20071;-56
2022/03/23 06:03:35;;;;;;;65.30;45.45;;;6.30;99.90;;;;;;5012038;28;20037;-55
2022/03/23 06:06:02;;;;;;;71.32;49.90;;;6.30;99.90;;;;;;5011612;28;20501;-55
2022/03/23 06:08:27;;;;;;;73.40;49.03;;;6.30;99.90;;;;;;5021132;28;20037;-56
2022/03/23 06:10:53;;;;;;;66.75;47.50;;;6.30;99.90;;;;;;5014421;28;20042;-57
2022/03/23 06:13:20;;;;;;;78.82;52.50;;;6.30;99.90;;;;;;5014779;28;20053;-56
2022/03/23 06:15:46;;;;;;;76.35;50.47;;;6.40;99.90;;;;;;4985345;28;20033;-56
2022/03/23 06:18:12;;;;;;;69.32;47.60;;;6.40;99.90;;;;;;5007761;28;20052;-54
2022/03/23 06:20:38;;;;;;;70.90;47.63;;;6.50;99.90;;;;;;4996490;28;20114;-56
2022/03/23 06:23:05;;;;;;;76.53;52.25;;;6.50;99.90;;;;;;4977825;28;20042;-54
2022/03/23 06:25:32;;;;;;;79.35;53.15;;;6.60;99.90;;;;;;5006834;28;20053;-55
2022/03/23 06:27:57;;;;;;;84.88;56.00;;;6.70;99.90;;;;;;5002310;28;21280;-56
2022/03/23 06:30:23;;;;;;;92.80;60.72;;;6.70;99.90;;;;;;4999865;28;20101;-57
2022/03/23 06:32:50;;;;;;;78.18;53.55;;;6.80;99.90;;;;;;5001826;28;20045;-53
2022/03/23 06:35:16;;;;;;;84.70;58.00;;;6.90;99.90;;;;;;4995127;28;20128;-55
2022/03/23 06:37:42;;;;;;;90.75;56.30;;;6.90;99.90;;;;;;4999199;28;20041;-56
2022/03/23 06:40:09;;;;;;;92.22;60.75;;;7.00;99.90;;;;;;5000892;28;20063;-53
2022/03/23 06:42:35;;;;;;;87.40;59.22;;;7.10;99.90;;;;;;5003556;28;20574;-56
2022/03/23 06:45:02;;;;;;;71.88;47.97;;;7.20;99.90;;;;;;5004625;28;20045;-55
2022/03/23 06:47:28;;;;;;;66.63;48.22;;;7.20;99.90;;;;;;4995234;28;20707;-57
2022/03/23 06:49:54;;;;;;;78.97;53.50;;;7.40;99.90;;;;;;4995788;28;20042;-57
2022/03/23 06:52:20;;;;;;;82.32;54.60;;;7.50;99.90;;;;;;5001917;28;20072;-56
2022/03/23 06:54:46;;;;;;;85.32;58.70;;;7.50;99.90;;;;;;5011848;28;20435;-56
2022/03/23 06:57:12;;;;;;;93.43;61.63;;;7.60;99.90;;;;;;5014177;28;20029;-57
2022/03/23 06:59:37;;;;;;;93.63;63.58;;;7.70;99.90;;;;;;5010974;28;20041;-56
2022/03/23 07:02:05;;;;;;;88.78;60.45;;;7.90;99.90;;;;;;5006767;28;20563;-56
2022/03/23 07:04:31;;;;;;;81.97;56.30;;;8.00;99.90;;;;;;5024765;28;20536;-56
2022/03/23 07:06:56;;;;;;;94.03;60.70;;;8.10;99.90;;;;;;4999283;28;20037;-57
2022/03/23 07:09:31;;;;;;;85.40;60.75;;;8.20;99.90;;;;;;5005791;28;20038;-56
2022/03/23 07:11:57;;;;;;;88.05;59.88;;;8.40;99.90;;;;;;5011663;28;20054;-55
2022/03/23 07:14:23;;;;;;;91.55;62.10;;;8.50;99.90;;;;;;5009813;28;20191;-57
2022/03/23 07:16:49;;;;;;;87.32;56.72;;;8.50;99.90;;;;;;5010400;28;20041;-57
2022/03/23 07:19:15;;;;;;;103.10;64.18;;;8.70;99.90;;;;;;5015278;28;20180;-57
2022/03/23 07:21:41;;;;;;;90.93;63.60;;;8.70;99.90;;;;;;5011951;28;21734;-56
2022/03/23 07:24:07;;;;;;;84.90;59.00;;;8.80;99.90;;;;;;5014291;28;20045;-57
2022/03/23 07:26:33;;;;;;;80.57;56.75;;;8.90;99.90;;;;;;5014928;28;20041;-57
2022/03/23 07:29:01;;;;;;;83.30;57.97;;;9.10;99.90;;;;;;5016550;28;20098;-56
2022/03/23 07:31:27;;;;;;;81.07;54.05;;;9.20;99.90;;;;;;5020065;28;20076;-56
2022/03/23 07:33:52;;;;;;;86.00;58.28;;;9.30;99.90;;;;;;5005308;28;20505;-56
2022/03/23 07:36:18;;;;;;;84.93;58.00;;;9.40;99.90;;;;;;5015203;28;20549;-57
2022/03/23 07:38:44;;;;;;;85.93;57.70;;;9.50;99.90;;;;;;5011480;28;20120;-56
2022/03/23 07:41:09;;;;;;;81.97;56.80;;;9.60;99.90;;;;;;5014617;28;20045;-53
2022/03/23 07:43:35;;;;;;;76.43;53.47;;;9.70;99.90;;;;;;4997721;28;20067;-56
2022/03/23 07:46:01;;;;;;;78.35;54.63;;;9.80;99.90;;;;;;5022635;28;20082;-57
2022/03/23 07:48:26;;;;;;;82.68;54.28;;;9.90;99.90;;;;;;4995495;28;20453;-57
2022/03/23 07:50:52;;;;;;;73.07;50.00;;;10.10;99.90;;;;;;5014659;28;20041;-56
2022/03/23 07:53:19;;;;;;;76.65;52.25;;;10.10;99.90;;;;;;5015817;28;20050;-56
2022/03/23 07:55:44;;;;;;;69.22;48.08;;;10.30;99.90;;;;;;5013315;28;20042;-58
2022/03/23 07:58:11;;;;;;;72.65;52.08;;;10.40;99.90;;;;;;5015618;28;20469;-56
2022/03/23 08:00:38;;;;;;;65.13;45.70;;;10.40;99.90;;;;;;5019779;28;20049;-55
2022/03/23 08:03:04;;;;;;;67.57;48.22;;;10.60;99.90;;;;;;5020931;28;20429;-57
2022/03/23 08:05:31;;;;;;;71.88;50.47;;;10.70;99.90;;;;;;5010156;28;20123;-56
2022/03/23 08:07:57;;;;;;;65.60;45.83;;;10.80;99.90;;;;;;5020353;28;20045;-57
2022/03/23 08:10:23;;;;;;;70.70;48.65;;;11.00;99.90;;;;;;5011037;28;20115;-56
2022/03/23 08:12:50;;;;;;;63.45;43.05;;;11.10;99.90;;;;;;5011678;28;20441;-56
2022/03/23 08:15:16;;;;;;;64.57;43.90;;;11.20;99.90;;;;;;5020143;28;20125;-57
2022/03/23 08:17:42;;;;;;;54.97;38.83;;;11.30;99.90;;;;;;5014991;28;20162;-55
2022/03/23 08:22:56;;;;;;;58.00;40.00;;;11.60;99.90;;;;;;5014488;28;20135;-58
2022/03/23 08:25:21;;;;;;;54.42;39.35;;;11.70;99.90;;;;;;5014247;28;20073;-56
2022/03/23 08:27:47;;;;;;;53.72;37.92;;;11.80;99.90;;;;;;5016621;28;20084;-57
2022/03/23 08:30:13;;;;;;;56.75;37.97;;;11.90;99.90;;;;;;5014310;28;20132;-57
2022/03/23 08:32:39;;;;;;;54.88;37.67;;;12.00;99.90;;;;;;5021514;28;20077;-56
2022/03/23 08:35:06;;;;;;;56.33;39.83;;;12.10;99.90;;;;;;5025061;28;20075;-57
2022/03/23 08:37:32;;;;;;;55.47;37.60;;;12.30;99.90;;;;;;5025139;28;20041;-57
2022/03/23 08:39:58;;;;;;;56.95;40.03;;;12.40;99.90;;;;;;5025962;28;20041;-55
2022/03/23 08:42:25;;;;;;;54.70;37.08;;;12.50;99.90;;;;;;5034344;28;20243;-56
2022/03/23 08:44:50;;;;;;;53.97;35.95;;;12.70;99.90;;;;;;5042553;28;20039;-55
2022/03/23 08:47:17;;;;;;;58.63;42.20;;;12.80;99.90;;;;;;5024102;28;20037;-56
2022/03/23 08:49:43;;;;;;;59.90;43.83;;;12.90;99.90;;;;;;5009256;28;20040;-55
2022/03/23 08:52:09;;;;;;;57.55;40.20;;;13.00;99.90;;;;;;5023528;28;20054;-56
2022/03/23 08:54:35;;;;;;;52.42;38.22;;;13.20;99.90;;;;;;5025602;28;20057;-57
2022/03/23 08:57:01;;;;;;;51.00;36.33;;;13.30;99.90;;;;;;5022154;28;20942;-58
2022/03/23 08:59:27;;;;;;;54.75;37.58;;;13.40;99.90;;;;;;5023893;28;20048;-54
2022/03/23 09:01:53;;;;;;;58.47;41.33;;;13.50;99.90;;;;;;5009479;28;20049;-55
2022/03/23 09:04:18;;;;;;;53.53;38.67;;;13.60;99.90;;;;;;5025238;28;20045;-55
2022/03/23 09:06:44;;;;;;;53.58;40.53;;;13.70;99.90;;;;;;5019976;28;20042;-56
2022/03/23 09:09:10;;;;;;;54.92;37.85;;;13.80;99.90;;;;;;5008129;28;20116;-56
2022/03/23 09:11:36;;;;;;;54.22;39.55;;;13.90;99.40;;;;;;5025339;28;20041;-55
2022/03/23 09:14:01;;;;;;;48.40;36.47;;;14.00;99.40;;;;;;5023369;28;20049;-58
2022/03/23 09:16:27;;;;;;;52.38;36.45;;;14.10;99.10;;;;;;5023004;28;20029;-57
2022/03/23 09:18:53;;;;;;;50.42;38.58;;;14.20;98.90;;;;;;5007588;28;20030;-58
2022/03/23 09:21:21;;;;;;;49.28;36.78;;;14.40;98.90;;;;;;5008736;28;20030;-56
2022/03/23 09:23:48;;;;;;;53.55;38.38;;;14.50;98.80;;;;;;5009335;28;20048;-56
2022/03/23 09:26:14;;;;;;;43.83;33.13;;;14.60;98.70;;;;;;5022784;28;20025;-56
2022/03/23 09:28:39;;;;;;;47.92;34.33;;;14.80;96.70;;;;;;5020863;28;20053;-56
2022/03/23 09:31:06;;;;;;;47.72;33.95;;;14.80;95.30;;;;;;5021650;28;20212;-56
2022/03/23 09:33:32;;;;;;;48.95;32.10;;;14.90;95.70;;;;;;5021851;28;20120;-55
2022/03/23 09:35:58;;;;;;;51.30;34.33;;;15.10;95.10;;;;;;5008589;28;20137;-56
2022/03/23 09:38:24;;;;;;;41.80;31.17;;;15.20;94.80;;;;;;5022891;28;20187;-57
2022/03/23 09:40:51;;;;;;;44.97;30.73;;;15.40;94.70;;;;;;5002720;28;20443;-56
2022/03/23 09:43:20;;;;;;;42.95;29.08;;;15.50;93.70;;;;;;5005084;28;20042;-56
2022/03/23 09:45:46;;;;;;;40.92;29.02;;;15.60;93.00;;;;;;5023338;28;20110;-56
2022/03/23 09:48:14;;;;;;;42.55;30.17;;;15.70;91.80;;;;;;5022885;28;20037;-56
2022/03/23 09:50:43;;;;;;;38.20;28.83;;;15.80;91.10;;;;;;5022295;28;20045;-58
2022/03/23 09:53:09;;;;;;;43.67;29.55;;;15.90;91.60;;;;;;5034512;28;20058;-57
2022/03/23 09:55:36;;;;;;;43.75;29.85;;;16.00;91.20;;;;;;4992514;28;20033;-56
2022/03/23 09:58:04;;;;;;;40.28;29.52;;;16.20;90.80;;;;;;5009075;28;20040;-58
2022/03/23 10:00:48;;;;;;;36.22;27.70;;;16.30;90.40;;;;;;5010171;28;20068;-58
2022/03/23 10:03:16;;;;;;;36.20;27.42;;;16.40;90.10;;;;;;4995127;28;20247;-56
2022/03/23 10:06:06;;;;;;;38.10;27.38;;;16.50;89.30;;;;;;5014299;28;20053;-57
2022/03/23 10:09:03;;;;;;;33.00;26.08;;;16.50;82.00;;;;;;5014386;28;20437;-57
2022/03/23 10:12:16;;;;;;;38.13;27.73;;;16.60;83.30;;;;;;5001893;28;20056;-55
2022/03/23 10:15:10;;;;;;;34.83;26.25;;;16.80;80.30;;;;;;5014979;28;20550;-57
2022/03/23 10:17:58;;;;;;;37.15;26.55;;;17.00;81.30;;;;;;5020108;28;20052;-57
2022/03/23 10:20:24;;;;;;;36.63;26.25;;;17.10;80.10;;;;;;5000963;28;20038;-56
2022/03/23 10:22:52;;;;;;;35.38;25.50;;;17.20;78.80;;;;;;5015143;28;20050;-58
2022/03/23 10:25:19;;;;;;;36.88;25.67;;;17.30;75.00;;;;;;5015923;28;20394;-57
2022/03/23 10:27:45;;;;;;;36.17;25.00;;;17.40;72.20;;;;;;5032827;28;20030;-57
2022/03/23 10:30:13;;;;;;;37.17;26.17;;;17.50;69.60;;;;;;5003540;28;20116;-55
2022/03/23 10:32:42;;;;;;;33.97;25.42;;;17.50;67.70;;;;;;5033787;28;20042;-58
2022/03/23 10:35:15;;;;;;;38.15;25.00;;;17.70;68.20;;;;;;5017606;28;20130;-57
2022/03/23 10:37:43;;;;;;;30.35;23.30;;;17.70;63.80;;;;;;5019895;28;20060;-57
2022/03/23 10:40:12;;;;;;;35.17;25.17;;;17.90;66.60;;;;;;5018556;28;20038;-57
2022/03/23 10:42:41;;;;;;;28.20;21.75;;;18.00;63.50;;;;;;5018998;28;20060;-56
2022/03/23 10:45:16;;;;;;;31.52;22.25;;;18.10;62.50;;;;;;5016165;28;20553;-58
2022/03/23 10:47:43;;;;;;;29.77;22.85;;;18.10;62.00;;;;;;5012906;28;20503;-57
2022/03/23 10:50:15;;;;;;;28.42;20.92;;;18.20;60.10;;;;;;5016606;28;20064;-58
2022/03/23 10:52:59;;;;;;;36.35;23.50;;;18.40;61.00;;;;;;5026485;28;20045;-56
2022/03/23 10:55:32;;;;;;;34.20;22.75;;;18.40;57.60;;;;;;5015252;28;20284;-58
2022/03/23 10:58:00;;;;;;;26.03;21.63;;;18.40;55.60;;;;;;5017581;28;20041;-58
2022/03/23 11:00:29;;;;;;;26.48;18.92;;;18.40;57.50;;;;;;5021333;28;20057;-56
2022/03/23 11:02:55;;;;;;;23.42;18.35;;;18.40;55.80;;;;;;5022827;28;20057;-57
2022/03/23 11:05:39;;;;;;;28.40;19.50;;;18.60;55.20;;;;;;5019868;28;20065;-57
2022/03/23 11:08:24;;;;;;;28.38;20.33;;;18.70;53.30;;;;;;5021163;28;20430;-57
2022/03/23 11:16:46;;;;;;;22.63;16.23;;;19.00;53.10;;;;;;4980510;28;20057;-58
2022/03/23 11:19:12;;;;;;;25.80;19.00;;;19.10;53.60;;;;;;5005275;28;20505;-57
2022/03/23 11:21:58;;;;;;;27.40;19.38;;;19.20;53.20;;;;;;5016309;28;20041;-57
2022/03/23 11:24:26;;;;;;;28.25;18.02;;;19.30;49.90;;;;;;5015875;28;20033;-57
2022/03/23 11:26:53;;;;;;;23.45;19.40;;;19.30;52.80;;;;;;5020896;28;20045;-57
2022/03/23 11:29:19;;;;;;;25.00;18.42;;;19.40;52.40;;;;;;5022041;28;20132;-55
2022/03/23 11:31:46;;;;;;;24.30;17.08;;;19.50;52.20;;;;;;5018857;28;20489;-56
2022/03/23 11:34:13;;;;;;;23.77;17.60;;;19.60;52.80;;;;;;5024439;28;20049;-58
2022/03/23 11:36:41;;;;;;;24.30;15.57;;;19.70;50.30;;;;;;5014839;28;20839;-58
2022/03/23 11:39:07;;;;;;;22.65;15.65;;;19.70;51.30;;;;;;5019938;28;20041;-58
2022/03/23 11:41:33;;;;;;;23.73;17.60;;;19.90;51.40;;;;;;5018318;28;20051;-57
2022/03/23 11:43:59;;;;;;;22.40;17.27;;;20.00;50.80;;;;;;5014834;28;20045;-57
2022/03/23 11:46:26;;;;;;;26.05;17.70;;;20.00;50.50;;;;;;5019636;28;20414;-57
2022/03/23 11:49:07;;;;;;;24.98;15.88;;;20.10;51.40;;;;;;5002625;28;20041;-57
2022/03/23 11:51:41;;;;;;;23.55;14.13;;;20.10;50.30;;;;;;5017448;28;20160;-56
2022/03/23 11:57:54;;;;;;;27.23;17.17;;;20.20;49.50;;;;;;4944207;28;20074;-57
2022/03/23 12:00:21;;;;;;;30.23;17.75;;;20.40;47.70;;;;;;5013313;28;20124;-57
2022/03/23 12:02:47;;;;;;;22.08;15.05;;;20.50;49.80;;;;;;5018591;28;20116;-58
2022/03/23 12:05:32;;;;;;;22.88;16.05;;;20.50;47.40;;;;;;5022206;28;20128;-58
2022/03/23 12:07:58;;;;;;;24.92;17.15;;;20.50;45.80;;;;;;5026444;28;20189;-58
2022/03/23 12:10:31;;;;;;;24.55;15.95;;;20.50;48.70;;;;;;5019110;28;20038;-58
2022/03/23 12:13:17;;;;;;;23.02;15.70;;;20.60;48.80;;;;;;5026165;28;20041;-57
2022/03/23 12:15:57;;;;;;;25.15;16.02;;;20.70;49.90;;;;;;5009523;28;20050;-57
2022/03/23 12:18:40;;;;;;;25.85;16.40;;;20.90;48.90;;;;;;5017925;28;20426;-57
2022/03/23 12:21:10;;;;;;;22.38;15.32;;;20.90;46.90;;;;;;5018365;28;20057;-58
2022/03/23 12:23:51;;;;;;;23.33;16.63;;;20.90;47.20;;;;;;5008936;28;20613;-57
2022/03/23 12:26:26;;;;;;;22.77;16.08;;;20.70;47.00;;;;;;5022895;28;20120;-58
2022/03/23 12:29:04;;;;;;;20.42;15.38;;;20.80;48.20;;;;;;5026777;28;20132;-58
2022/03/23 12:31:40;;;;;;;22.35;15.10;;;21.00;48.20;;;;;;5019653;28;20049;-59
2022/03/23 12:34:14;;;;;;;22.15;15.48;;;21.10;46.60;;;;;;5020655;28;20056;-57
2022/03/23 12:36:59;;;;;;;22.50;15.88;;;21.20;48.30;;;;;;5024554;28;20047;-56
2022/03/23 12:39:30;;;;;;;21.10;15.63;;;21.10;47.20;;;;;;5024829;28;20160;-58
2022/03/23 12:42:13;;;;;;;24.75;15.18;;;21.10;45.50;;;;;;5026836;28;20040;-58
2022/03/23 12:44:46;;;;;;;23.83;15.63;;;21.00;47.60;;;;;;5019270;28;20061;-56
2022/03/23 12:47:21;;;;;;;21.88;16.20;;;21.20;47.60;;;;;;5009919;28;20199;-58
2022/03/23 12:58:13;;;;;;;24.40;15.02;;;21.50;48.30;;;;;;5016162;28;20310;-56
2022/03/23 13:00:47;;;;;;;19.15;13.02;;;21.60;46.10;;;;;;5022686;28;20038;-58
2022/03/23 13:03:33;;;;;;;21.63;13.05;;;21.60;46.90;;;;;;5002756;28;20049;-56
2022/03/23 13:06:02;;;;;;;22.48;12.27;;;21.70;42.90;;;;;;5008072;28;20470;-56
2022/03/23 13:08:32;;;;;;;21.95;12.82;;;21.60;45.50;;;;;;5024458;28;20073;-56
2022/03/23 13:11:08;;;;;;;21.80;12.75;;;21.60;46.50;;;;;;5018986;28;20064;-56